sensor_id;sensor_type;location;lat;lon;timestamp;pressure;altitude;pressure_sealevel;temperature;humidity
23170;BME280;11753;43.144;24.714;2022-09-09T00:00:32;99547.84;;;21.57;63.86
23170;BME280;11753;43.144;24.714;2022-09-09T00:02:46;99543.63;;;21.49;64.21
23170;BME280;11753;43.144;24.714;2022-09-09T00:05:19;99551.44;;;21.51;64.20
23170;BME280;11753;43.144;24.714;2022-09-09T00:07:59;99542.69;;;21.43;64.08
23170;BME280;11753;43.144;24.714;2022-09-09T00:09:12;99546.53;;;21.48;63.31
23170;BME280;11753;43.144;24.714;2022-09-09T00:10:28;99544.63;;;21.36;63.72
23170;BME280;11753;43.144;24.714;2022-09-09T00:11:51;99548.78;;;21.32;64.06
23170;BME280;11753;43.144;24.714;2022-09-09T00:14:09;99542.22;;;21.28;63.84
23170;BME280;11753;43.144;24.714;2022-09-09T00:15:19;99543.44;;;21.32;62.72
23170;BME280;11753;43.144;24.714;2022-09-09T00:16:24;99543.91;;;21.29;62.47
23170;BME280;11753;43.144;24.714;2022-09-09T00:17:43;99548.78;;;21.32;62.44
23170;BME280;11753;43.144;24.714;2022-09-09T00:19:01;99549.25;;;21.29;62.30
23170;BME280;11753;43.144;24.714;2022-09-09T00:20:14;99542.44;;;21.27;62.53
23170;BME280;11753;43.144;24.714;2022-09-09T00:21:17;99534.81;;;21.30;62.24
23170;BME280;11753;43.144;24.714;2022-09-09T00:22:20;99543.91;;;21.29;62.23
23170;BME280;11753;43.144;24.714;2022-09-09T00:24:46;99543.72;;;21.24;62.34
23170;BME280;11753;43.144;24.714;2022-09-09T00:25:57;99540.22;;;21.24;62.12
23170;BME280;11753;43.144;24.714;2022-09-09T00:27:25;99544.28;;;21.26;62.12
23170;BME280;11753;43.144;24.714;2022-09-09T00:28:33;99528.69;;;21.23;62.11
23170;BME280;11753;43.144;24.714;2022-09-09T00:30:44;99540.56;;;21.27;62.31
23170;BME280;11753;43.144;24.714;2022-09-09T00:31:48;99546.38;;;21.24;62.65
23170;BME280;11753;43.144;24.714;2022-09-09T00:32:53;99533.59;;;21.26;62.50
23170;BME280;11753;43.144;24.714;2022-09-09T00:34:00;99538.19;;;21.19;62.29
23170;BME280;11753;43.144;24.714;2022-09-09T00:36:49;99532.63;;;21.21;62.05
23170;BME280;11753;43.144;24.714;2022-09-09T00:37:56;99541.47;;;21.21;62.26
23170;BME280;11753;43.144;24.714;2022-09-09T00:39:00;99532.41;;;21.22;62.33
23170;BME280;11753;43.144;24.714;2022-09-09T00:40:16;99538.94;;;21.26;62.26
23170;BME280;11753;43.144;24.714;2022-09-09T00:42:52;99533.22;;;21.23;62.46
23170;BME280;11753;43.144;24.714;2022-09-09T00:44:01;99535.22;;;21.27;62.63
23170;BME280;11753;43.144;24.714;2022-09-09T00:48:10;99534.47;;;21.20;62.30
23170;BME280;11753;43.144;24.714;2022-09-09T00:50:39;99529.13;;;21.20;62.37
23170;BME280;11753;43.144;24.714;2022-09-09T00:52:56;99527.06;;;21.22;62.14
23170;BME280;11753;43.144;24.714;2022-09-09T00:56:50;99520.88;;;21.22;61.73
23170;BME280;11753;43.144;24.714;2022-09-09T00:57:54;99527.50;;;21.19;61.97
23170;BME280;11753;43.144;24.714;2022-09-09T01:00:27;99525.28;;;21.16;62.35
23170;BME280;11753;43.144;24.714;2022-09-09T01:01:29;99524.25;;;21.17;62.29
23170;BME280;11753;43.144;24.714;2022-09-09T01:02:32;99523.84;;;21.13;62.14
23170;BME280;11753;43.144;24.714;2022-09-09T01:03:38;99517.25;;;21.16;62.26
23170;BME280;11753;43.144;24.714;2022-09-09T01:04:41;99525.88;;;21.18;62.08
23170;BME280;11753;43.144;24.714;2022-09-09T01:07:20;99526.91;;;21.17;61.59
23170;BME280;11753;43.144;24.714;2022-09-09T01:08:53;99524.66;;;21.14;61.73
23170;BME280;11753;43.144;24.714;2022-09-09T01:10:05;99519.31;;;21.14;61.90
23170;BME280;11753;43.144;24.714;2022-09-09T01:11:21;99526.16;;;21.10;61.76
23170;BME280;11753;43.144;24.714;2022-09-09T01:12:41;99525.13;;;21.11;62.08
23170;BME280;11753;43.144;24.714;2022-09-09T01:13:45;99519.84;;;21.04;62.23
23170;BME280;11753;43.144;24.714;2022-09-09T01:14:51;99518.16;;;21.10;62.08
23170;BME280;11753;43.144;24.714;2022-09-09T01:15:54;99508.69;;;21.07;62.14
23170;BME280;11753;43.144;24.714;2022-09-09T01:16:58;99511.16;;;21.09;62.11
23170;BME280;11753;43.144;24.714;2022-09-09T01:18:13;99516.06;;;21.12;61.86
23170;BME280;11753;43.144;24.714;2022-09-09T01:19:27;99515.69;;;21.08;61.95
23170;BME280;11753;43.144;24.714;2022-09-09T01:20:52;99514.88;;;21.08;62.01
23170;BME280;11753;43.144;24.714;2022-09-09T01:22:10;99513.97;;;21.14;61.89
23170;BME280;11753;43.144;24.714;2022-09-09T01:23:38;99514.88;;;21.08;61.96
23170;BME280;11753;43.144;24.714;2022-09-09T01:27:14;99506.13;;;21.01;62.56
23170;BME280;11753;43.144;24.714;2022-09-09T01:28:21;99516.19;;;20.99;62.44
23170;BME280;11753;43.144;24.714;2022-09-09T01:29:24;99505.50;;;20.99;62.49
23170;BME280;11753;43.144;24.714;2022-09-09T01:30:26;99504.75;;;20.92;62.67
23170;BME280;11753;43.144;24.714;2022-09-09T01:31:39;99509.69;;;20.95;62.75
23170;BME280;11753;43.144;24.714;2022-09-09T01:32:49;99510.50;;;20.95;62.60
23170;BME280;11753;43.144;24.714;2022-09-09T01:33:50;99503.34;;;20.89;62.91
23170;BME280;11753;43.144;24.714;2022-09-09T01:34:51;99508.94;;;20.87;62.66
23170;BME280;11753;43.144;24.714;2022-09-09T01:36:07;99506.50;;;20.86;62.79
23170;BME280;11753;43.144;24.714;2022-09-09T01:37:10;99505.66;;;20.85;62.98
23170;BME280;11753;43.144;24.714;2022-09-09T01:38:13;99513.97;;;20.77;63.32
23170;BME280;11753;43.144;24.714;2022-09-09T01:39:15;99507.56;;;20.78;63.14
23170;BME280;11753;43.144;24.714;2022-09-09T01:40:16;99504.31;;;20.76;63.57
23170;BME280;11753;43.144;24.714;2022-09-09T01:41:17;99505.34;;;20.75;63.87
23170;BME280;11753;43.144;24.714;2022-09-09T01:42:18;99498.97;;;20.76;63.80
23170;BME280;11753;43.144;24.714;2022-09-09T01:43:23;99494.88;;;20.74;63.65
23170;BME280;11753;43.144;24.714;2022-09-09T01:44:26;99495.13;;;20.72;63.85
23170;BME280;11753;43.144;24.714;2022-09-09T01:45:28;99501.94;;;20.68;63.69
23170;BME280;11753;43.144;24.714;2022-09-09T01:46:28;99499.25;;;20.68;64.21
23170;BME280;11753;43.144;24.714;2022-09-09T01:47:29;99497.91;;;20.59;64.08
23170;BME280;11753;43.144;24.714;2022-09-09T01:48:30;99501.78;;;20.63;64.20
23170;BME280;11753;43.144;24.714;2022-09-09T01:49:31;99497.31;;;20.57;64.45
23170;BME280;11753;43.144;24.714;2022-09-09T01:50:33;99497.31;;;20.57;64.33
23170;BME280;11753;43.144;24.714;2022-09-09T01:51:35;99494.50;;;20.52;64.67
23170;BME280;11753;43.144;24.714;2022-09-09T01:52:38;99495.69;;;20.56;64.27
23170;BME280;11753;43.144;24.714;2022-09-09T01:53:41;99494.91;;;20.49;64.62
23170;BME280;11753;43.144;24.714;2022-09-09T01:54:42;99496.56;;;20.50;64.65
23170;BME280;11753;43.144;24.714;2022-09-09T01:57:23;99488.41;;;20.45;64.91
23170;BME280;11753;43.144;24.714;2022-09-09T02:00:07;99493.28;;;20.48;64.96
23170;BME280;11753;43.144;24.714;2022-09-09T02:02:39;99490.38;;;20.49;64.79
23170;BME280;11753;43.144;24.714;2022-09-09T02:03:51;99489.56;;;20.49;64.68
23170;BME280;11753;43.144;24.714;2022-09-09T02:07:39;99498.31;;;20.38;65.25
23170;BME280;11753;43.144;24.714;2022-09-09T02:08:52;99500.81;;;20.32;65.77
23170;BME280;11753;43.144;24.714;2022-09-09T02:10:16;99496.91;;;20.28;65.75
23170;BME280;11753;43.144;24.714;2022-09-09T02:11:19;99502.06;;;20.30;65.76
23170;BME280;11753;43.144;24.714;2022-09-09T02:12:23;99508.81;;;20.32;65.20
23170;BME280;11753;43.144;24.714;2022-09-09T02:13:26;99509.41;;;20.34;65.36
23170;BME280;11753;43.144;24.714;2022-09-09T02:14:37;99505.69;;;20.35;65.54
23170;BME280;11753;43.144;24.714;2022-09-09T02:17:32;99506.97;;;20.33;64.99
23170;BME280;11753;43.144;24.714;2022-09-09T02:18:40;99503.47;;;20.32;65.01
23170;BME280;11753;43.144;24.714;2022-09-09T02:19:50;99511.03;;;20.35;65.43
23170;BME280;11753;43.144;24.714;2022-09-09T02:20:56;99507.34;;;20.37;65.46
23170;BME280;11753;43.144;24.714;2022-09-09T02:22:00;99506.75;;;20.34;65.30
23170;BME280;11753;43.144;24.714;2022-09-09T02:23:02;99503.66;;;20.38;65.38
23170;BME280;11753;43.144;24.714;2022-09-09T02:24:08;99505.28;;;20.39;64.88
23170;BME280;11753;43.144;24.714;2022-09-09T02:25:13;99508.53;;;20.41;64.80
23170;BME280;11753;43.144;24.714;2022-09-09T02:26:16;99506.47;;;20.43;64.68
23170;BME280;11753;43.144;24.714;2022-09-09T02:27:22;99506.47;;;20.43;64.66
23170;BME280;11753;43.144;24.714;2022-09-09T02:28:26;99518.41;;;20.40;64.70
23170;BME280;11753;43.144;24.714;2022-09-09T02:29:42;99501.97;;;20.43;64.54
23170;BME280;11753;43.144;24.714;2022-09-09T02:30:45;99507.50;;;20.42;64.77
23170;BME280;11753;43.144;24.714;2022-09-09T02:31:49;99511.81;;;20.43;64.96
23170;BME280;11753;43.144;24.714;2022-09-09T02:32:51;99507.09;;;20.45;64.58
23170;BME280;11753;43.144;24.714;2022-09-09T02:33:56;99507.25;;;20.50;64.71
23170;BME280;11753;43.144;24.714;2022-09-09T02:35:05;99506.06;;;20.46;64.47
23170;BME280;11753;43.144;24.714;2022-09-09T02:36:10;99510.78;;;20.44;64.66
23170;BME280;11753;43.144;24.714;2022-09-09T02:37:15;99508.53;;;20.41;64.72
23170;BME280;11753;43.144;24.714;2022-09-09T02:38:22;99515.53;;;20.42;64.59
23170;BME280;11753;43.144;24.714;2022-09-09T02:39:26;99510.16;;;20.42;64.98
23170;BME280;11753;43.144;24.714;2022-09-09T02:40:27;99511.00;;;20.42;64.89
23170;BME280;11753;43.144;24.714;2022-09-09T02:41:33;99514.91;;;20.46;64.57
23170;BME280;11753;43.144;24.714;2022-09-09T02:42:41;99512.84;;;20.42;65.04
23170;BME280;11753;43.144;24.714;2022-09-09T02:43:42;99515.13;;;20.45;64.76
23170;BME280;11753;43.144;24.714;2022-09-09T02:44:44;99515.97;;;20.39;64.84
23170;BME280;11753;43.144;24.714;2022-09-09T02:45:58;99515.97;;;20.39;64.65
23170;BME280;11753;43.144;24.714;2022-09-09T02:48:47;99514.34;;;20.38;64.93
23170;BME280;11753;43.144;24.714;2022-09-09T02:52:02;99511.03;;;20.35;64.86
23170;BME280;11753;43.144;24.714;2022-09-09T02:55:02;99510.47;;;20.33;64.61
23170;BME280;11753;43.144;24.714;2022-09-09T02:56:09;99506.97;;;20.33;64.52
23170;BME280;11753;43.144;24.714;2022-09-09T02:57:23;99517.66;;;20.33;64.77
23170;BME280;11753;43.144;24.714;2022-09-09T02:58:26;99506.59;;;20.29;64.84
23170;BME280;11753;43.144;24.714;2022-09-09T02:59:27;99508.66;;;20.27;64.98
23170;BME280;11753;43.144;24.714;2022-09-09T03:00:28;99509.09;;;20.24;64.85
23170;BME280;11753;43.144;24.714;2022-09-09T03:01:29;99512.59;;;20.25;64.66
23170;BME280;11753;43.144;24.714;2022-09-09T03:02:30;99509.09;;;20.24;64.73
23170;BME280;11753;43.144;24.714;2022-09-09T03:03:31;99513.41;;;20.25;65.21
23170;BME280;11753;43.144;24.714;2022-09-09T03:04:33;99511.31;;;20.27;65.06
23170;BME280;11753;43.144;24.714;2022-09-09T03:05:34;99508.34;;;20.17;65.45
23170;BME280;11753;43.144;24.714;2022-09-09T03:06:36;99518.22;;;20.17;65.31
23170;BME280;11753;43.144;24.714;2022-09-09T03:07:37;99510.56;;;20.20;65.13
23170;BME280;11753;43.144;24.714;2022-09-09T03:08:40;99510.56;;;20.20;64.97
23170;BME280;11753;43.144;24.714;2022-09-09T03:09:43;99510.41;;;20.15;65.27
23170;BME280;11753;43.144;24.714;2022-09-09T03:10:44;99517.44;;;20.10;65.59
23170;BME280;11753;43.144;24.714;2022-09-09T03:11:44;99507.19;;;20.06;65.66
23170;BME280;11753;43.144;24.714;2022-09-09T03:12:46;99508.63;;;20.09;65.75
23170;BME280;11753;43.144;24.714;2022-09-09T03:13:46;99513.72;;;20.11;65.61
23170;BME280;11753;43.144;24.714;2022-09-09T03:14:49;99510.88;;;20.05;65.56
23170;BME280;11753;43.144;24.714;2022-09-09T03:15:50;99508.84;;;20.08;65.46
23170;BME280;11753;43.144;24.714;2022-09-09T03:16:52;99504.72;;;20.05;65.85
23170;BME280;11753;43.144;24.714;2022-09-09T03:17:53;99512.53;;;20.06;65.79
23170;BME280;11753;43.144;24.714;2022-09-09T03:18:54;99502.66;;;20.07;66.08
23170;BME280;11753;43.144;24.714;2022-09-09T03:19:55;99506.75;;;20.10;65.86
23170;BME280;11753;43.144;24.714;2022-09-09T03:20:59;99509.22;;;20.11;65.88
23170;BME280;11753;43.144;24.714;2022-09-09T03:22:00;99513.34;;;20.07;65.95
23170;BME280;11753;43.144;24.714;2022-09-09T03:23:00;99512.91;;;20.10;65.75
23170;BME280;11753;43.144;24.714;2022-09-09T03:24:03;99511.13;;;20.04;65.54
23170;BME280;11753;43.144;24.714;2022-09-09T03:25:05;99514.38;;;20.06;65.75
23170;BME280;11753;43.144;24.714;2022-09-09T03:26:06;99509.25;;;20.04;65.69
23170;BME280;11753;43.144;24.714;2022-09-09T03:27:08;99512.16;;;20.03;65.64
23170;BME280;11753;43.144;24.714;2022-09-09T03:28:09;99514.44;;;19.99;65.60
23170;BME280;11753;43.144;24.714;2022-09-09T03:29:11;99505.63;;;19.92;66.26
23170;BME280;11753;43.144;24.714;2022-09-09T03:30:12;99511.03;;;19.86;66.36
23170;BME280;11753;43.144;24.714;2022-09-09T03:31:14;99517.41;;;19.85;66.53
23170;BME280;11753;43.144;24.714;2022-09-09T03:32:15;99520.06;;;19.85;66.53
23170;BME280;11753;43.144;24.714;2022-09-09T03:33:17;99521.28;;;19.89;66.33
23170;BME280;11753;43.144;24.714;2022-09-09T03:34:18;99520.25;;;19.90;66.77
23170;BME280;11753;43.144;24.714;2022-09-09T03:35:19;99523.31;;;19.93;66.52
23170;BME280;11753;43.144;24.714;2022-09-09T03:36:20;99522.06;;;19.96;66.32
23170;BME280;11753;43.144;24.714;2022-09-09T03:37:21;99533.34;;;19.98;66.58
23170;BME280;11753;43.144;24.714;2022-09-09T03:38:24;99525.78;;;19.95;66.85
23170;BME280;11753;43.144;24.714;2022-09-09T03:39:25;99526.59;;;19.95;66.88
23170;BME280;11753;43.144;24.714;2022-09-09T03:40:26;99519.16;;;19.97;66.69
23170;BME280;11753;43.144;24.714;2022-09-09T03:41:27;99526.19;;;19.92;66.78
23170;BME280;11753;43.144;24.714;2022-09-09T03:42:28;99520.91;;;19.85;66.66
23170;BME280;11753;43.144;24.714;2022-09-09T03:43:29;99524.38;;;19.86;67.14
23170;BME280;11753;43.144;24.714;2022-09-09T03:44:30;99519.44;;;19.89;66.81
23170;BME280;11753;43.144;24.714;2022-09-09T03:45:31;99523.75;;;19.90;66.46
23170;BME280;11753;43.144;24.714;2022-09-09T03:46:31;99513.88;;;19.91;66.79
23170;BME280;11753;43.144;24.714;2022-09-09T03:47:36;99529.53;;;19.87;66.72
23170;BME280;11753;43.144;24.714;2022-09-09T03:48:37;99522.94;;;19.90;66.70
23170;BME280;11753;43.144;24.714;2022-09-09T03:49:37;99521.72;;;19.86;66.84
23170;BME280;11753;43.144;24.714;2022-09-09T03:50:44;99521.13;;;19.84;67.12
23170;BME280;11753;43.144;24.714;2022-09-09T03:51:45;99517.41;;;19.85;66.96
23170;BME280;11753;43.144;24.714;2022-09-09T03:52:46;99523.97;;;19.89;67.03
23170;BME280;11753;43.144;24.714;2022-09-09T03:53:47;99522.75;;;19.85;66.88
23170;BME280;11753;43.144;24.714;2022-09-09T03:54:48;99527.44;;;19.89;66.64
23170;BME280;11753;43.144;24.714;2022-09-09T03:55:51;99525.00;;;19.88;66.64
23170;BME280;11753;43.144;24.714;2022-09-09T03:56:55;99524.56;;;19.91;67.01
23170;BME280;11753;43.144;24.714;2022-09-09T03:57:55;99532.56;;;19.91;66.90
23170;BME280;11753;43.144;24.714;2022-09-09T03:58:56;99532.56;;;19.91;67.05
23170;BME280;11753;43.144;24.714;2022-09-09T03:59:58;99530.13;;;19.89;66.93
23170;BME280;11753;43.144;24.714;2022-09-09T04:01:10;99523.97;;;19.89;66.92
23170;BME280;11753;43.144;24.714;2022-09-09T04:02:13;99535.25;;;19.91;66.51
23170;BME280;11753;43.144;24.714;2022-09-09T04:03:14;99530.94;;;19.90;66.64
23170;BME280;11753;43.144;24.714;2022-09-09T04:04:16;99524.56;;;19.91;66.47
23170;BME280;11753;43.144;24.714;2022-09-09T04:05:17;99529.09;;;19.90;66.53
23170;BME280;11753;43.144;24.714;2022-09-09T04:06:18;99527.22;;;19.91;66.54
23170;BME280;11753;43.144;24.714;2022-09-09T04:07:20;99529.09;;;19.90;66.47
23170;BME280;11753;43.144;24.714;2022-09-09T04:08:22;99522.13;;;19.89;66.44
23170;BME280;11753;43.144;24.714;2022-09-09T04:09:26;99523.97;;;19.89;66.36
23170;BME280;11753;43.144;24.714;2022-09-09T04:10:27;99524.56;;;19.91;66.47
23170;BME280;11753;43.144;24.714;2022-09-09T04:11:29;99536.06;;;19.91;66.49
23170;BME280;11753;43.144;24.714;2022-09-09T04:12:30;99534.44;;;19.90;66.76
23170;BME280;11753;43.144;24.714;2022-09-09T04:13:33;99531.56;;;19.85;67.02
23170;BME280;11753;43.144;24.714;2022-09-09T04:14:34;99529.09;;;19.90;66.69
23170;BME280;11753;43.144;24.714;2022-09-09T04:15:36;99536.88;;;19.92;66.64
23170;BME280;11753;43.144;24.714;2022-09-09T04:16:36;99531.97;;;19.89;66.98
23170;BME280;11753;43.144;24.714;2022-09-09T04:17:37;99529.50;;;19.94;66.49
23170;BME280;11753;43.144;24.714;2022-09-09T04:18:38;99523.53;;;19.92;66.58
23170;BME280;11753;43.144;24.714;2022-09-09T04:19:39;99522.06;;;19.96;66.75
23170;BME280;11753;43.144;24.714;2022-09-09T04:20:40;99520.00;;;19.98;66.58
23170;BME280;11753;43.144;24.714;2022-09-09T04:21:41;99529.84;;;19.97;66.49
23170;BME280;11753;43.144;24.714;2022-09-09T04:22:42;99523.69;;;19.97;66.40
23170;BME280;11753;43.144;24.714;2022-09-09T04:23:43;99522.47;;;19.93;66.83
23170;BME280;11753;43.144;24.714;2022-09-09T04:24:44;99516.13;;;19.94;66.44
23170;BME280;11753;43.144;24.714;2022-09-09T04:25:49;99518.75;;;20.00;66.41
23170;BME280;11753;43.144;24.714;2022-09-09T04:26:51;99516.72;;;19.96;66.66
23170;BME280;11753;43.144;24.714;2022-09-09T04:27:55;99515.91;;;19.95;66.99
23170;BME280;11753;43.144;24.714;2022-09-09T04:28:57;99519.22;;;19.91;66.79
23170;BME280;11753;43.144;24.714;2022-09-09T04:29:58;99520.00;;;19.98;66.68
23170;BME280;11753;43.144;24.714;2022-09-09T04:31:07;99519.75;;;19.99;66.67
23170;BME280;11753;43.144;24.714;2022-09-09T04:32:09;99514.66;;;19.98;66.60
23170;BME280;11753;43.144;24.714;2022-09-09T04:33:11;99517.50;;;20.03;66.50
23170;BME280;11753;43.144;24.714;2022-09-09T04:34:12;99519.16;;;19.97;66.85
23170;BME280;11753;43.144;24.714;2022-09-09T04:35:13;99521.25;;;19.95;66.49
23170;BME280;11753;43.144;24.714;2022-09-09T04:36:14;99511.59;;;19.94;66.57
23170;BME280;11753;43.144;24.714;2022-09-09T04:37:15;99514.66;;;19.98;66.39
23170;BME280;11753;43.144;24.714;2022-09-09T04:38:17;99521.25;;;19.95;66.83
23170;BME280;11753;43.144;24.714;2022-09-09T04:39:18;99514.22;;;20.01;66.84
23170;BME280;11753;43.144;24.714;2022-09-09T04:40:20;99507.72;;;19.90;67.01
23170;BME280;11753;43.144;24.714;2022-09-09T04:41:22;99518.19;;;19.92;66.61
23170;BME280;11753;43.144;24.714;2022-09-09T04:42:24;99516.72;;;19.96;66.45
23170;BME280;11753;43.144;24.714;2022-09-09T04:43:26;99514.22;;;20.01;66.81
23170;BME280;11753;43.144;24.714;2022-09-09T21:09:45;99378.72;;;22.94;82.11
